Time;durP1;ratioP1;P1;durP2;ratioP2;P2;SDS_P1;SDS_P2;PMS_P1;PMS_P2;Temp;Humidity;BMP_temperature;BMP_pressure;BME280_temperature;BME280_humidity;BME280_pressure;Samples;Min_cycle;Max_cycle;Signal;HPM_P1;HPM_P2
2021/03/27 00:01:33;;;;;;;3.07;2.20;;;6.40;99.90;;;;;;5068550;28;20195;-58
2021/03/27 00:04:09;;;;;;;2.93;1.93;;;6.40;99.90;;;;;;5084569;28;20202;-59
2021/03/27 00:07:08;;;;;;;3.17;2.00;;;6.40;99.90;;;;;;5085020;28;20206;-58
2021/03/27 00:09:49;;;;;;;3.17;2.30;;;6.30;99.90;;;;;;5088632;28;20229;-58
2021/03/27 00:12:42;;;;;;;5.27;2.50;;;6.30;99.90;;;;;;5086684;28;20247;-61
2021/03/27 00:15:23;;;;;;;3.73;2.17;;;6.30;99.90;;;;;;5085085;28;20649;-60
2021/03/27 00:18:07;;;;;;;4.40;1.93;;;6.30;99.90;;;;;;5085388;28;20727;-59
2021/03/27 00:20:36;;;;;;;2.80;2.00;;;6.20;99.90;;;;;;5086998;28;20551;-60
2021/03/27 00:23:13;;;;;;;2.57;2.00;;;6.20;99.90;;;;;;5083940;28;20229;-60
2021/03/27 00:26:05;;;;;;;5.20;2.23;;;6.30;99.90;;;;;;5082688;28;20192;-59
2021/03/27 00:28:58;;;;;;;2.97;2.17;;;6.30;99.90;;;;;;5080763;28;20229;-59
2021/03/27 00:31:59;;;;;;;4.30;2.40;;;6.20;99.90;;;;;;5087065;28;20203;-59
2021/03/27 00:34:31;;;;;;;4.20;2.30;;;6.20;99.90;;;;;;5070205;28;20212;-60
2021/03/27 00:37:02;;;;;;;7.03;3.20;;;6.20;99.90;;;;;;5082837;28;20190;-59
2021/03/27 00:39:54;;;;;;;3.73;2.57;;;6.20;99.90;;;;;;5088093;28;20217;-59
2021/03/27 00:42:30;;;;;;;4.67;2.40;;;6.20;99.90;;;;;;5074508;28;20268;-58
2021/03/27 00:45:01;;;;;;;8.70;3.23;;;6.20;99.90;;;;;;5083936;28;20602;-60
2021/03/27 00:47:52;;;;;;;4.27;2.93;;;6.20;99.90;;;;;;5085456;28;20738;-58
2021/03/27 00:50:26;;;;;;;5.40;3.40;;;6.20;99.90;;;;;;5084108;28;20301;-58
2021/03/27 00:52:58;;;;;;;13.23;3.00;;;6.30;99.90;;;;;;5088801;28;20203;-60
2021/03/27 00:55:53;;;;;;;4.57;2.83;;;6.10;99.90;;;;;;5083063;28;20560;-58
2021/03/27 00:58:34;;;;;;;4.87;3.00;;;6.20;99.90;;;;;;5078821;28;20204;-60
2021/03/27 01:01:07;;;;;;;7.80;3.73;;;6.20;99.90;;;;;;5083301;28;20193;-59
2021/03/27 01:03:41;;;;;;;6.47;3.67;;;6.20;99.90;;;;;;5085353;28;20199;-58
2021/03/27 01:06:12;;;;;;;9.37;3.87;;;6.20;99.90;;;;;;5082701;28;20198;-58
2021/03/27 01:08:40;;;;;;;9.40;3.37;;;6.10;99.90;;;;;;5068907;28;20202;-58
2021/03/27 01:11:14;;;;;;;8.87;4.10;;;6.20;99.90;;;;;;5083953;28;20198;-60
2021/03/27 01:13:54;;;;;;;6.93;3.67;;;6.10;99.90;;;;;;5087899;28;20203;-60
2021/03/27 01:16:28;;;;;;;5.97;3.43;;;6.10;99.90;;;;;;5084984;28;20250;-58
2021/03/27 01:19:03;;;;;;;4.37;3.40;;;6.10;99.90;;;;;;5088112;28;20201;-58
2021/03/27 01:21:37;;;;;;;4.93;2.80;;;6.10;99.90;;;;;;5082892;28;20204;-60
2021/03/27 01:24:07;;;;;;;9.33;3.57;;;6.20;99.90;;;;;;5082307;28;20214;-59
2021/03/27 01:27:09;;;;;;;5.70;2.93;;;6.10;99.90;;;;;;5084502;28;20650;-57
2021/03/27 01:29:45;;;;;;;5.57;3.33;;;6.10;99.90;;;;;;4991347;28;20626;-60
2021/03/27 01:32:20;;;;;;;5.73;2.70;;;6.20;99.90;;;;;;5083145;28;20253;-58
2021/03/27 01:34:57;;;;;;;5.33;3.30;;;6.20;99.90;;;;;;5082405;28;20197;-60
2021/03/27 01:37:30;;;;;;;4.53;2.77;;;6.10;99.90;;;;;;5085331;28;20334;-59
2021/03/27 01:40:11;;;;;;;4.27;3.40;;;6.10;99.90;;;;;;5086443;28;20633;-59
2021/03/27 01:42:38;;;;;;;5.53;3.03;;;6.00;99.90;;;;;;5082016;28;20204;-59
2021/03/27 01:45:07;;;;;;;7.70;2.60;;;6.00;99.90;;;;;;5084127;28;20210;-58
2021/03/27 01:47:45;;;;;;;6.77;3.23;;;6.00;99.90;;;;;;5083149;28;20238;-59
2021/03/27 01:50:44;;;;;;;3.37;2.40;;;5.90;99.90;;;;;;5084538;28;20209;-61
2021/03/27 01:54:01;;;;;;;6.17;3.10;;;6.00;99.90;;;;;;5069990;28;20212;-59
2021/03/27 01:56:53;;;;;;;7.27;2.97;;;6.00;99.90;;;;;;5001037;28;20635;-60
2021/03/27 01:59:52;;;;;;;10.33;2.50;;;6.00;99.90;;;;;;4987020;28;20237;-59
2021/03/27 02:03:07;;;;;;;4.20;2.33;;;6.00;99.90;;;;;;5001134;28;20263;-60
2021/03/27 02:05:37;;;;;;;7.83;2.83;;;6.10;99.90;;;;;;4998984;28;20211;-59
2021/03/27 02:08:15;;;;;;;5.83;2.80;;;6.10;99.90;;;;;;5003485;28;20233;-61
2021/03/27 02:10:59;;;;;;;6.60;2.47;;;6.10;99.90;;;;;;5008234;28;20225;-59
2021/03/27 02:13:39;;;;;;;6.70;2.60;;;6.10;99.90;;;;;;5004670;28;20797;-60
2021/03/27 02:16:24;;;;;;;5.03;2.90;;;6.10;99.90;;;;;;5005893;28;20228;-59
2021/03/27 02:19:00;;;;;;;5.20;2.83;;;6.10;99.90;;;;;;5008495;28;20757;-59
2021/03/27 02:21:51;;;;;;;7.27;2.83;;;6.10;99.90;;;;;;5004771;28;20297;-58
2021/03/27 02:24:36;;;;;;;9.13;3.17;;;6.10;99.90;;;;;;5003121;28;20229;-60
2021/03/27 02:27:08;;;;;;;6.17;3.20;;;6.00;99.90;;;;;;5036499;28;20611;-60
2021/03/27 02:29:47;;;;;;;5.30;3.03;;;6.00;99.90;;;;;;5090995;28;20275;-60
2021/03/27 02:32:28;;;;;;;6.40;3.43;;;6.00;99.90;;;;;;5087688;28;20241;-60
2021/03/27 02:35:06;;;;;;;8.43;3.27;;;5.90;99.90;;;;;;5088102;28;20228;-58
2021/03/27 02:37:39;;;;;;;4.07;2.83;;;5.90;99.90;;;;;;5089448;28;20255;-60
2021/03/27 02:40:23;;;;;;;9.00;4.03;;;5.90;99.90;;;;;;5089360;28;20199;-59
2021/03/27 02:43:20;;;;;;;5.87;3.50;;;5.90;99.90;;;;;;5082596;28;20581;-59
2021/03/27 02:46:14;;;;;;;9.07;3.77;;;6.00;99.90;;;;;;5086791;28;20195;-59
2021/03/27 02:49:09;;;;;;;9.80;2.93;;;5.90;99.90;;;;;;5088835;28;20199;-60
2021/03/27 02:51:48;;;;;;;6.37;2.93;;;5.90;99.90;;;;;;5086335;28;20198;-60
2021/03/27 02:54:47;;;;;;;5.43;3.10;;;6.00;99.90;;;;;;5091422;28;20704;-61
2021/03/27 02:57:41;;;;;;;5.27;3.30;;;6.00;99.90;;;;;;5085032;28;20252;-59
2021/03/27 03:00:14;;;;;;;8.17;4.27;;;6.00;99.90;;;;;;5088859;28;20658;-59
2021/03/27 03:03:02;;;;;;;10.67;3.80;;;6.00;99.90;;;;;;5086563;28;20199;-60
2021/03/27 03:05:46;;;;;;;9.73;3.93;;;5.90;99.90;;;;;;5089213;28;20210;-59
2021/03/27 03:08:21;;;;;;;8.43;3.93;;;5.90;99.90;;;;;;5087192;28;20202;-59
2021/03/27 03:10:52;;;;;;;9.60;5.00;;;5.90;99.90;;;;;;5088684;28;20267;-59
2021/03/27 03:13:46;;;;;;;9.47;4.13;;;6.00;99.90;;;;;;5088230;28;20533;-59
2021/03/27 03:16:27;;;;;;;10.57;4.37;;;5.90;99.90;;;;;;5088105;28;20226;-59
2021/03/27 03:19:08;;;;;;;7.40;4.47;;;5.90;99.90;;;;;;5088215;28;20269;-59
2021/03/27 03:21:41;;;;;;;11.17;4.70;;;5.80;99.90;;;;;;5087274;28;20207;-59
2021/03/27 03:24:11;;;;;;;8.17;4.10;;;5.90;99.90;;;;;;5081871;28;20285;-60
2021/03/27 03:26:58;;;;;;;10.10;3.50;;;5.80;99.90;;;;;;5089520;28;20334;-60
2021/03/27 03:29:47;;;;;;;10.47;4.80;;;5.90;99.90;;;;;;5084757;28;20215;-59
2021/03/27 03:32:38;;;;;;;11.50;3.43;;;5.80;99.90;;;;;;5087401;28;20247;-60
2021/03/27 03:35:31;;;;;;;7.23;3.87;;;5.90;99.90;;;;;;5086736;28;20553;-59
2021/03/27 03:38:16;;;;;;;9.37;3.70;;;5.90;99.90;;;;;;5085259;28;20191;-59
2021/03/27 03:40:59;;;;;;;5.37;2.93;;;6.00;99.90;;;;;;5085219;28;20227;-58
2021/03/27 03:43:45;;;;;;;6.20;3.53;;;6.00;99.90;;;;;;5083921;28;20202;-59
2021/03/27 03:46:25;;;;;;;17.23;4.37;;;6.00;99.90;;;;;;5084809;28;20285;-59
2021/03/27 03:49:26;;;;;;;7.73;3.13;;;6.00;99.90;;;;;;5087901;28;20202;-59
2021/03/27 03:51:55;;;;;;;15.13;3.13;;;6.00;99.90;;;;;;5088293;28;20794;-60
2021/03/27 03:55:01;;;;;;;9.33;2.40;;;6.10;99.90;;;;;;5086404;28;20572;-60
2021/03/27 03:57:30;;;;;;;8.43;3.50;;;6.10;99.90;;;;;;5088936;28;20262;-60
2021/03/27 04:00:20;;;;;;;11.00;2.53;;;6.20;99.90;;;;;;5086291;28;20699;-59
2021/03/27 04:02:50;;;;;;;2.67;1.90;;;6.20;99.90;;;;;;5074121;28;20294;-59
2021/03/27 04:05:39;;;;;;;8.00;2.10;;;6.20;99.90;;;;;;5086284;28;20199;-60
2021/03/27 04:08:51;;;;;;;7.57;2.57;;;6.30;99.90;;;;;;5087175;28;20674;-60
2021/03/27 04:11:33;;;;;;;4.17;1.67;;;6.40;99.90;;;;;;5071988;28;20198;-61
2021/03/27 04:14:03;;;;;;;5.63;1.73;;;6.30;99.90;;;;;;5085026;28;20194;-59
2021/03/27 04:16:34;;;;;;;6.83;1.70;;;6.30;99.90;;;;;;5087687;28;20526;-59
2021/03/27 04:19:14;;;;;;;9.53;2.37;;;6.40;99.90;;;;;;5087741;28;20199;-60
2021/03/27 04:22:06;;;;;;;8.77;2.10;;;6.40;99.90;;;;;;5084407;28;20306;-59
2021/03/27 04:24:59;;;;;;;6.00;1.33;;;6.40;99.90;;;;;;5088470;28;20191;-59
2021/03/27 04:27:31;;;;;;;5.30;1.40;;;6.40;99.90;;;;;;5087290;28;20230;-60
2021/03/27 04:30:06;;;;;;;8.30;1.50;;;6.40;99.90;;;;;;5089396;28;20215;-58
2021/03/27 04:33:08;;;;;;;9.43;1.73;;;6.40;99.90;;;;;;5087844;28;20251;-60
2021/03/27 04:35:53;;;;;;;7.73;1.97;;;6.40;99.90;;;;;;4961695;28;20285;-59
2021/03/27 04:38:34;;;;;;;5.77;1.60;;;6.50;99.90;;;;;;4966897;28;20210;-59
2021/03/27 04:41:24;;;;;;;4.73;1.13;;;6.40;99.90;;;;;;4945989;28;20711;-60
2021/03/27 04:43:59;;;;;;;5.87;1.83;;;6.40;99.90;;;;;;4957377;28;20211;-59
2021/03/27 04:46:34;;;;;;;6.53;2.40;;;6.40;99.90;;;;;;4963054;28;20237;-60
2021/03/27 04:49:37;;;;;;;7.83;2.03;;;6.40;99.90;;;;;;4959085;28;20293;-59
2021/03/27 04:52:10;;;;;;;8.80;2.27;;;6.30;99.90;;;;;;4965378;28;20226;-59
2021/03/27 04:54:48;;;;;;;6.57;1.90;;;6.30;99.90;;;;;;4964507;28;20286;-59
2021/03/27 04:57:33;;;;;;;4.10;1.60;;;6.40;99.90;;;;;;4965692;28;20203;-60
2021/03/27 05:00:15;;;;;;;5.00;2.30;;;6.30;99.90;;;;;;4963640;28;20613;-59
2021/03/27 05:02:46;;;;;;;8.57;2.23;;;6.20;99.90;;;;;;4966519;28;20281;-59
2021/03/27 05:05:20;;;;;;;4.60;0.80;;;6.00;99.90;;;;;;4956361;28;20203;-60
2021/03/27 05:08:13;;;;;;;6.63;1.33;;;5.90;99.90;;;;;;4967626;28;20266;-60
2021/03/27 05:11:14;;;;;;;2.60;0.83;;;5.80;99.90;;;;;;5078565;28;20215;-58
2021/03/27 05:14:00;;;;;;;5.70;1.00;;;5.90;99.90;;;;;;5084479;28;20447;-58
2021/03/27 05:16:33;;;;;;;7.87;1.40;;;5.90;99.90;;;;;;5081761;28;20289;-58
2021/03/27 05:19:13;;;;;;;4.50;1.13;;;5.90;99.90;;;;;;5084786;28;20198;-60
2021/03/27 05:21:52;;;;;;;4.17;1.17;;;5.90;99.90;;;;;;5086196;28;20281;-59
2021/03/27 05:24:33;;;;;;;9.97;2.00;;;6.00;99.90;;;;;;5085229;28;20724;-60
2021/03/27 05:27:26;;;;;;;5.10;1.00;;;6.00;99.90;;;;;;5077224;28;20206;-59
2021/03/27 05:29:57;;;;;;;2.57;0.90;;;5.70;99.90;;;;;;5087845;28;20206;-58
2021/03/27 05:32:32;;;;;;;4.13;1.10;;;5.60;99.90;;;;;;5086711;28;20576;-61
2021/03/27 05:35:24;;;;;;;1.40;1.27;;;5.70;99.90;;;;;;5085887;28;20308;-60
2021/03/27 05:37:59;;;;;;;5.27;1.23;;;4.80;99.90;;;;;;5075735;28;20259;-59
2021/03/27 05:40:25;;;;;;;4.33;1.20;;;4.70;99.90;;;;;;5084325;28;20206;-61
2021/03/27 05:43:17;;;;;;;8.73;1.50;;;4.90;99.90;;;;;;5082018;28;20599;-59
2021/03/27 05:46:04;;;;;;;5.33;0.97;;;5.00;99.90;;;;;;5089577;28;20249;-59
2021/03/27 05:48:47;;;;;;;3.50;1.23;;;5.20;99.90;;;;;;5084751;28;20917;-58
2021/03/27 05:52:05;;;;;;;7.33;1.10;;;5.30;99.90;;;;;;5089344;28;20607;-58
2021/03/27 05:54:40;;;;;;;2.47;0.60;;;5.40;99.90;;;;;;5056952;28;20317;-58
2021/03/27 05:57:47;;;;;;;3.37;0.90;;;5.50;99.90;;;;;;5088313;28;20254;-59
2021/03/27 06:00:33;;;;;;;3.70;0.80;;;5.50;99.90;;;;;;5088822;28;20772;-61
2021/03/27 06:03:32;;;;;;;4.37;0.87;;;5.60;99.90;;;;;;5085974;28;20222;-60
2021/03/27 06:05:58;;;;;;;1.53;0.60;;;5.30;99.90;;;;;;5088963;28;20268;-61
2021/03/27 06:08:37;;;;;;;1.67;0.73;;;5.20;99.90;;;;;;5091936;28;20701;-60
2021/03/27 06:11:37;;;;;;;2.07;1.00;;;5.10;99.90;;;;;;5088621;28;20245;-59
2021/03/27 06:14:31;;;;;;;3.70;0.90;;;5.10;99.90;;;;;;5087316;28;20226;-60
2021/03/27 06:17:31;;;;;;;4.57;1.00;;;5.00;99.90;;;;;;5069957;28;20381;-60
2021/03/27 06:20:13;;;;;;;4.60;1.13;;;5.00;99.90;;;;;;5088322;28;20194;-59
2021/03/27 06:23:33;;;;;;;4.93;0.80;;;4.90;99.90;;;;;;5087139;28;20213;-59
2021/03/27 06:26:27;;;;;;;1.93;0.70;;;5.00;99.90;;;;;;5008911;28;20593;-60
2021/03/27 06:29:22;;;;;;;2.03;0.70;;;4.90;99.90;;;;;;5006872;28;20654;-60
2021/03/27 06:32:10;;;;;;;2.50;0.87;;;5.00;99.90;;;;;;4997387;28;20300;-61
2021/03/27 06:34:45;;;;;;;4.03;1.03;;;4.80;99.90;;;;;;5007210;28;20284;-59
2021/03/27 06:37:22;;;;;;;2.17;0.70;;;4.80;99.90;;;;;;5007222;28;20292;-60
2021/03/27 06:39:49;;;;;;;4.03;0.80;;;4.80;99.90;;;;;;5009707;28;20201;-60
2021/03/27 06:43:04;;;;;;;3.80;1.07;;;4.80;99.90;;;;;;5004593;28;20228;-60
2021/03/27 06:45:54;;;;;;;3.37;1.00;;;4.80;99.90;;;;;;4993101;28;20201;-60
2021/03/27 06:48:44;;;;;;;4.20;1.07;;;4.80;99.90;;;;;;5012842;28;20685;-60
2021/03/27 06:51:47;;;;;;;0.87;0.50;;;5.00;99.90;;;;;;5004975;28;20236;-60
2021/03/27 06:55:02;;;;;;;6.90;0.80;;;5.00;99.90;;;;;;5008422;28;20202;-59
2021/03/27 06:57:57;;;;;;;4.60;0.90;;;5.10;99.90;;;;;;4991417;28;20342;-60
2021/03/27 07:00:46;;;;;;;5.53;0.73;;;5.30;99.90;;;;;;5066129;28;20286;-60
2021/03/27 07:03:31;;;;;;;1.87;1.37;;;5.40;99.90;;;;;;5088301;28;20240;-59
2021/03/27 07:06:32;;;;;;;5.10;0.97;;;5.60;99.90;;;;;;5086234;28;20655;-58
2021/03/27 07:09:36;;;;;;;3.03;1.10;;;5.70;99.90;;;;;;5091047;28;20203;-60
2021/03/27 07:12:24;;;;;;;5.93;1.00;;;6.00;99.90;;;;;;5083915;28;20553;-61
2021/03/27 07:15:02;;;;;;;6.83;1.43;;;6.20;99.90;;;;;;5091463;28;20361;-59
2021/03/27 07:17:47;;;;;;;6.77;1.30;;;6.50;99.90;;;;;;5089013;28;20617;-60
2021/03/27 07:20:33;;;;;;;8.63;1.30;;;6.40;99.90;;;;;;5089293;28;20201;-60
2021/03/27 07:23:21;;;;;;;16.47;2.00;;;6.50;99.90;;;;;;5084977;28;20198;-60
2021/03/27 07:26:15;;;;;;;6.93;1.13;;;6.40;99.90;;;;;;5088436;28;20206;-59
2021/03/27 07:29:32;;;;;;;8.03;1.23;;;6.40;99.90;;;;;;5086605;28;20589;-60
2021/03/27 07:32:14;;;;;;;6.40;0.70;;;6.20;99.90;;;;;;5085298;28;20214;-60
2021/03/27 07:34:52;;;;;;;4.57;1.20;;;6.30;99.90;;;;;;5086106;28;20241;-60
2021/03/27 07:37:34;;;;;;;3.50;0.87;;;6.20;99.90;;;;;;5082157;28;20274;-58
2021/03/27 07:40:06;;;;;;;4.70;0.93;;;6.00;99.90;;;;;;5074148;28;20230;-60
2021/03/27 07:42:40;;;;;;;7.73;1.20;;;5.80;99.90;;;;;;5078736;28;20250;-60
2021/03/27 07:45:32;;;;;;;3.37;0.60;;;5.70;99.90;;;;;;5081110;28;20193;-58
2021/03/27 07:48:56;;;;;;;5.77;0.60;;;5.50;99.90;;;;;;5080800;28;20263;-59
2021/03/27 07:51:47;;;;;;;5.60;0.70;;;5.50;99.90;;;;;;4947177;28;20244;-59
2021/03/27 07:54:42;;;;;;;1.93;0.57;;;5.60;99.90;;;;;;5089298;28;20256;-60
2021/03/27 07:57:33;;;;;;;7.03;1.00;;;5.60;99.90;;;;;;5085444;28;20197;-59
2021/03/27 08:00:15;;;;;;;1.63;0.53;;;5.70;99.90;;;;;;5090556;28;20217;-60
2021/03/27 08:03:08;;;;;;;2.70;0.60;;;5.60;99.90;;;;;;5086117;28;20257;-58
2021/03/27 08:05:52;;;;;;;6.50;0.70;;;5.50;99.90;;;;;;5081843;28;20207;-60
2021/03/27 08:08:54;;;;;;;3.50;0.40;;;5.60;99.90;;;;;;5084215;28;20193;-60
2021/03/27 08:11:47;;;;;;;1.93;1.00;;;5.20;99.90;;;;;;5086384;28;20884;-59
2021/03/27 08:14:22;;;;;;;3.13;0.57;;;5.30;99.90;;;;;;5086935;28;20196;-59
2021/03/27 08:16:53;;;;;;;2.63;0.70;;;5.10;99.90;;;;;;5086424;28;20265;-58
2021/03/27 08:19:41;;;;;;;3.37;0.57;;;5.20;99.90;;;;;;5087003;28;20246;-58
2021/03/27 08:22:42;;;;;;;3.70;0.83;;;5.40;99.90;;;;;;5087406;28;20590;-60
2021/03/27 08:25:33;;;;;;;4.13;0.93;;;5.50;99.90;;;;;;5090036;28;20256;-60
2021/03/27 08:28:56;;;;;;;3.13;0.57;;;5.20;99.90;;;;;;5084666;28;20250;-59
2021/03/27 08:31:47;;;;;;;2.03;0.70;;;5.30;99.90;;;;;;5089483;28;20247;-60
2021/03/27 08:34:34;;;;;;;1.13;0.40;;;5.70;99.90;;;;;;5086370;28;20380;-59
2021/03/27 08:37:24;;;;;;;2.47;1.03;;;6.40;99.90;;;;;;5085327;28;20221;-58
2021/03/27 08:40:09;;;;;;;4.60;0.80;;;6.20;99.90;;;;;;5089266;28;20629;-58
2021/03/27 08:42:50;;;;;;;6.57;1.00;;;6.10;99.90;;;;;;5087306;28;20609;-58
2021/03/27 08:45:27;;;;;;;5.47;1.10;;;6.30;99.90;;;;;;5085655;28;20610;-58
2021/03/27 08:48:21;;;;;;;9.23;1.27;;;6.10;99.90;;;;;;5084271;28;20268;-60
2021/03/27 08:51:06;;;;;;;3.10;1.03;;;6.00;99.90;;;;;;5085838;28;20325;-60
2021/03/27 08:53:52;;;;;;;6.30;1.37;;;6.80;99.90;;;;;;5083221;28;20202;-59
2021/03/27 08:56:31;;;;;;;4.77;1.10;;;7.40;99.90;;;;;;5079012;28;20535;-60
2021/03/27 08:59:20;;;;;;;2.97;1.07;;;8.10;99.90;;;;;;5079253;28;20231;-59
2021/03/27 09:01:53;;;;;;;11.80;1.37;;;8.00;99.90;;;;;;5081058;28;20222;-60
2021/03/27 09:04:45;;;;;;;6.93;1.43;;;8.30;99.90;;;;;;5084426;28;20252;-59
2021/03/27 09:07:30;;;;;;;6.03;1.50;;;8.30;99.90;;;;;;5081065;28;20320;-58
2021/03/27 09:10:30;;;;;;;3.77;1.50;;;8.90;99.90;;;;;;5079483;28;20399;-58
2021/03/27 09:13:17;;;;;;;6.57;1.30;;;8.60;99.90;;;;;;5086743;28;20688;-59
2021/03/27 09:16:16;;;;;;;7.10;1.90;;;8.80;99.90;;;;;;5078464;28;20723;-60
2021/03/27 09:19:00;;;;;;;11.37;1.87;;;8.70;99.90;;;;;;5083907;28;20276;-59
2021/03/27 09:21:54;;;;;;;11.93;1.50;;;9.10;99.90;;;;;;5079705;28;20221;-58
2021/03/27 09:24:44;;;;;;;4.00;1.07;;;8.80;99.90;;;;;;5082145;28;20277;-59
2021/03/27 09:27:44;;;;;;;4.73;1.33;;;8.50;99.90;;;;;;5080769;28;20649;-58
2021/03/27 09:30:34;;;;;;;6.53;0.80;;;7.90;99.90;;;;;;5083633;28;20257;-59
2021/03/27 09:33:26;;;;;;;8.67;1.60;;;7.00;99.90;;;;;;5081295;28;20193;-59
2021/03/27 09:36:25;;;;;;;5.37;1.10;;;6.60;99.90;;;;;;5081454;28;20281;-59
2021/03/27 09:39:13;;;;;;;6.40;1.10;;;6.70;99.90;;;;;;5082398;28;20282;-59
2021/03/27 09:42:01;;;;;;;5.00;1.13;;;7.90;99.90;;;;;;5073099;28;20971;-60
2021/03/27 09:44:46;;;;;;;4.73;1.70;;;8.60;99.90;;;;;;5081985;28;20379;-59
2021/03/27 09:47:34;;;;;;;4.93;1.20;;;9.40;99.90;;;;;;5081244;28;20269;-59
2021/03/27 09:50:34;;;;;;;7.97;1.10;;;9.70;99.90;;;;;;5086432;28;20246;-58
2021/03/27 09:53:23;;;;;;;5.23;1.50;;;9.90;99.90;;;;;;5078686;28;20201;-59
2021/03/27 09:56:10;;;;;;;4.40;1.20;;;10.40;99.90;;;;;;5071858;28;20594;-57
2021/03/27 09:59:09;;;;;;;2.30;0.70;;;10.40;99.90;;;;;;5083457;28;20449;-57
2021/03/27 10:01:42;;;;;;;3.87;0.87;;;10.30;99.90;;;;;;5083352;28;20612;-58
2021/03/27 10:04:22;;;;;;;5.27;1.00;;;10.50;99.90;;;;;;5082218;28;20363;-59
2021/03/27 10:07:32;;;;;;;3.63;0.97;;;10.00;99.90;;;;;;5061856;28;20221;-57
2021/03/27 10:10:14;;;;;;;5.10;0.93;;;10.40;99.90;;;;;;5067387;28;20466;-60
2021/03/27 10:12:58;;;;;;;9.67;1.03;;;10.30;98.00;;;;;;5079795;28;20680;-58
2021/03/27 10:15:37;;;;;;;9.30;0.90;;;10.00;96.40;;;;;;5083014;28;20248;-57
2021/03/27 10:18:29;;;;;;;3.27;0.83;;;9.70;99.90;;;;;;5078688;28;20238;-58
2021/03/27 10:21:11;;;;;;;4.73;0.90;;;10.20;99.70;;;;;;5079793;28;20228;-57
2021/03/27 10:24:16;;;;;;;5.43;1.10;;;10.60;96.90;;;;;;5080738;28;20291;-58
2021/03/27 10:27:10;;;;;;;5.33;1.10;;;10.20;96.90;;;;;;5082489;28;20236;-58
2021/03/27 10:29:56;;;;;;;3.50;0.90;;;9.70;96.10;;;;;;5078029;28;20817;-57
2021/03/27 10:32:25;;;;;;;7.83;1.20;;;9.50;96.90;;;;;;5085393;28;20201;-58
2021/03/27 10:35:10;;;;;;;5.80;1.13;;;9.20;96.30;;;;;;5064767;28;20333;-58
2021/03/27 10:37:43;;;;;;;3.83;0.80;;;9.10;91.40;;;;;;5086738;28;20200;-58
2021/03/27 10:40:30;;;;;;;3.17;0.70;;;9.00;93.50;;;;;;5080402;28;20292;-59
2021/03/27 10:43:21;;;;;;;4.83;0.83;;;9.00;94.50;;;;;;5080593;28;20303;-58
2021/03/27 10:45:57;;;;;;;8.90;1.27;;;9.20;95.40;;;;;;5082338;28;20302;-57
2021/03/27 10:48:44;;;;;;;6.30;1.03;;;9.10;91.80;;;;;;5080534;28;20328;-59
2021/03/27 10:51:31;;;;;;;4.03;0.50;;;8.90;93.10;;;;;;5077967;28;20303;-59
2021/03/27 10:54:23;;;;;;;2.10;0.60;;;8.70;92.90;;;;;;5080841;28;20240;-58
2021/03/27 10:57:31;;;;;;;9.93;1.00;;;8.90;93.50;;;;;;5064262;28;20323;-57
2021/03/27 11:00:52;;;;;;;3.43;0.83;;;8.70;94.00;;;;;;5075342;28;20305;-59
2021/03/27 11:03:52;;;;;;;6.23;0.70;;;9.20;98.10;;;;;;5078647;28;20249;-57
2021/03/27 11:06:34;;;;;;;3.37;0.63;;;9.30;92.50;;;;;;5083622;28;20279;-59
2021/03/27 11:09:03;;;;;;;4.13;1.07;;;9.00;95.10;;;;;;5087337;28;20204;-59
2021/03/27 11:11:48;;;;;;;4.20;0.93;;;8.30;99.90;;;;;;5085717;28;20634;-58
2021/03/27 11:14:55;;;;;;;8.77;1.33;;;8.00;99.90;;;;;;5089484;28;20212;-57
2021/03/27 11:17:43;;;;;;;7.43;1.10;;;8.20;99.90;;;;;;5043109;28;20230;-58
2021/03/27 11:20:28;;;;;;;6.13;0.87;;;8.70;99.90;;;;;;5046062;28;20201;-59
2021/03/27 11:23:03;;;;;;;6.50;1.50;;;9.90;99.90;;;;;;5044471;28;20828;-59
2021/03/27 11:26:05;;;;;;;5.83;1.00;;;9.60;98.40;;;;;;5045330;28;20197;-59
2021/03/27 11:28:48;;;;;;;3.00;0.70;;;9.30;97.60;;;;;;5046522;28;20247;-58
2021/03/27 11:31:40;;;;;;;4.57;1.00;;;9.60;98.70;;;;;;5046113;28;20250;-58
2021/03/27 11:34:31;;;;;;;1.90;0.90;;;9.80;99.80;;;;;;5045130;28;20645;-57
2021/03/27 11:37:20;;;;;;;4.47;1.23;;;9.40;99.90;;;;;;5038085;28;20200;-57
2021/03/27 11:40:21;;;;;;;8.60;1.00;;;9.70;97.70;;;;;;5043006;28;20204;-59
2021/03/27 11:43:11;;;;;;;7.13;0.90;;;9.90;93.50;;;;;;5043910;28;20238;-59
2021/03/27 11:46:11;;;;;;;4.50;1.10;;;10.10;92.20;;;;;;5042029;28;20287;-59
2021/03/27 11:48:49;;;;;;;5.73;0.90;;;9.60;92.60;;;;;;5068166;28;20314;-58
2021/03/27 11:51:24;;;;;;;1.70;1.00;;;9.20;92.30;;;;;;5082781;28;20211;-57
2021/03/27 11:54:16;;;;;;;6.23;0.90;;;9.50;93.00;;;;;;5086320;28;20276;-58
2021/03/27 11:57:21;;;;;;;6.47;1.37;;;9.30;93.70;;;;;;5085158;28;20195;-57
2021/03/27 12:03:20;;;;;;;3.77;0.90;;;9.40;1.00;;;;;;5050683;28;20231;-57
2021/03/27 12:06:08;;;;;;;4.37;1.20;;;9.50;1.00;;;;;;5081724;28;20280;-58
2021/03/27 12:09:02;;;;;;;1.67;0.90;;;9.60;93.60;;;;;;5083043;28;20220;-58
2021/03/27 12:11:53;;;;;;;2.80;0.80;;;9.80;93.60;;;;;;5085765;28;20260;-59
2021/03/27 12:15:06;;;;;;;8.13;1.03;;;9.80;99.90;;;;;;5083150;28;20208;-59
2021/03/27 12:17:58;;;;;;;4.30;1.20;;;10.10;90.60;;;;;;5000586;28;20282;-59
2021/03/27 12:20:47;;;;;;;4.67;0.73;;;9.90;87.80;;;;;;5000897;28;20199;-60
2021/03/27 12:23:30;;;;;;;3.50;0.90;;;10.00;99.90;;;;;;5004536;28;20772;-58
2021/03/27 12:26:12;;;;;;;7.87;1.00;;;10.50;89.80;;;;;;5000824;28;20622;-57
2021/03/27 12:28:50;;;;;;;6.40;0.97;;;10.60;88.20;;;;;;5004301;28;20210;-58
2021/03/27 12:31:57;;;;;;;6.87;0.93;;;10.40;90.40;;;;;;5001485;28;20333;-58
2021/03/27 12:34:33;;;;;;;3.30;0.90;;;10.80;1.00;;;;;;4964871;28;20248;-57
2021/03/27 12:37:07;;;;;;;4.93;0.87;;;10.40;1.00;;;;;;4996688;28;20277;-58
2021/03/27 12:40:16;;;;;;;6.60;1.53;;;10.70;1.00;;;;;;5002809;28;20306;-58
2021/03/27 12:42:49;;;;;;;5.47;0.77;;;10.70;99.90;;;;;;4999012;28;20683;-57
2021/03/27 12:45:38;;;;;;;7.03;1.77;;;10.40;99.90;;;;;;5003406;28;20208;-57
2021/03/27 12:48:37;;;;;;;8.37;1.10;;;10.50;86.10;;;;;;5035224;28;20377;-56
2021/03/27 12:51:27;;;;;;;4.77;1.47;;;10.60;83.70;;;;;;5075331;28;20685;-58
2021/03/27 12:54:11;;;;;;;3.90;1.00;;;10.70;1.00;;;;;;5085363;28;20201;-57
2021/03/27 12:57:30;;;;;;;8.00;1.67;;;11.50;1.00;;;;;;5084274;28;20197;-58
2021/03/27 13:00:34;;;;;;;2.77;1.40;;;11.40;1.00;;;;;;5082475;28;20583;-57
2021/03/27 13:03:32;;;;;;;8.50;0.90;;;12.00;1.00;;;;;;5078392;28;20218;-58
2021/03/27 13:06:38;;;;;;;9.33;1.00;;;11.70;99.90;;;;;;5082063;28;20213;-57
2021/03/27 13:09:11;;;;;;;4.97;1.40;;;11.80;1.00;;;;;;5080932;28;20233;-58
2021/03/27 13:11:45;;;;;;;4.93;1.27;;;11.30;1.00;;;;;;5082556;28;20688;-57
2021/03/27 13:14:40;;;;;;;8.20;0.83;;;11.60;1.00;;;;;;5080507;28;20667;-57
2021/03/27 13:17:33;;;;;;;5.43;1.23;;;11.70;1.00;;;;;;5078694;28;20198;-58
2021/03/27 13:20:05;;;;;;;4.60;1.03;;;11.80;1.00;;;;;;5041836;28;20245;-58
2021/03/27 13:22:40;;;;;;;7.67;1.50;;;11.30;99.90;;;;;;5082097;28;20226;-57
2021/03/27 13:25:18;;;;;;;6.10;1.57;;;10.80;1.00;;;;;;5080820;28;20617;-59
2021/03/27 13:27:46;;;;;;;6.13;1.27;;;10.70;1.00;;;;;;5080872;28;20203;-57
2021/03/27 13:30:24;;;;;;;5.43;1.07;;;10.80;1.00;;;;;;5080270;28;20244;-57
2021/03/27 13:33:09;;;;;;;7.87;1.13;;;10.90;42.20;;;;;;5080769;28;20195;-57
2021/03/27 13:35:59;;;;;;;2.00;0.90;;;10.60;99.90;;;;;;5079977;28;20285;-57
2021/03/27 13:38:44;;;;;;;5.67;1.10;;;11.30;99.90;;;;;;5078109;28;20652;-57
2021/03/27 13:41:25;;;;;;;5.77;1.60;;;11.60;99.90;;;;;;5080762;28;20689;-57
2021/03/27 13:44:07;;;;;;;4.77;1.17;;;11.70;60.70;;;;;;5081658;28;20201;-57
2021/03/27 13:46:41;;;;;;;6.07;1.13;;;11.90;55.60;;;;;;5078358;28;20299;-57
2021/03/27 13:49:20;;;;;;;4.63;1.23;;;11.80;61.70;;;;;;5079844;28;20281;-57
2021/03/27 13:51:53;;;;;;;5.13;0.97;;;11.70;99.90;;;;;;5063314;28;20219;-58
2021/03/27 13:54:29;;;;;;;3.83;1.13;;;11.80;1.00;;;;;;5080666;28;20211;-57
2021/03/27 13:57:04;;;;;;;6.03;1.10;;;11.40;99.90;;;;;;5075811;28;20544;-57
2021/03/27 13:59:51;;;;;;;6.23;1.50;;;11.40;1.00;;;;;;5082632;28;20297;-59
2021/03/27 14:03:00;;;;;;;5.87;1.30;;;11.20;99.90;;;;;;5080891;28;20286;-57
2021/03/27 14:05:44;;;;;;;4.47;0.77;;;10.50;1.00;;;;;;5045204;28;20225;-58
2021/03/27 14:08:32;;;;;;;4.50;1.10;;;10.90;1.00;;;;;;5079985;28;20207;-57
2021/03/27 14:11:03;;;;;;;3.47;1.13;;;11.10;99.90;;;;;;5079301;28;20211;-57
2021/03/27 14:13:38;;;;;;;6.53;1.47;;;11.00;1.00;;;;;;5081365;28;20305;-58
2021/03/27 14:16:25;;;;;;;3.33;1.03;;;11.10;40.70;;;;;;5078456;28;20701;-57
2021/03/27 14:19:19;;;;;;;5.50;1.13;;;11.10;99.90;;;;;;5084052;28;20221;-57
2021/03/27 14:22:00;;;;;;;8.93;0.97;;;10.50;1.00;;;;;;5084964;28;20241;-58
2021/03/27 14:25:07;;;;;;;6.27;0.77;;;10.40;99.90;;;;;;5091551;28;20209;-57
2021/03/27 14:27:59;;;;;;;7.63;1.30;;;10.20;99.90;;;;;;5081639;28;20642;-58
2021/03/27 14:30:48;;;;;;;5.17;0.97;;;10.90;1.00;;;;;;5082839;28;20728;-58
2021/03/27 14:33:40;;;;;;;6.73;1.20;;;11.00;1.00;;;;;;5086780;28;20222;-57
2021/03/27 14:36:57;;;;;;;6.30;1.30;;;10.70;1.00;;;;;;5087212;28;20204;-56
2021/03/27 14:39:55;;;;;;;12.07;1.30;;;10.90;1.00;;;;;;5050760;28;20264;-56